Terminal Aerodrome Forecast
Issued by NWS Shreveport, LA

Home | Current Version | Previous Version | Text Only | Print | Product List | Glossary On
Versions: 1 2 3 4 5 6 7 8 9 10 11 12 13 14 15 16 17 18 19 20
000
FTUS44 KSHV 231000 AAB
TAFGGG
TAF AMD
KGGG 231057Z 2311/2406 12012KT P6SM FEW007 OVC100
      TEMPO 2311/2313 5SM -RA BR BKN007 OVC100
     FM231600 21011KT P6SM BKN100
     FM231800 22016G23KT P6SM SCT035
     FM240000 26020G21KT P6SM SKC=

USA.gov is the U.S. government's official web portal to all federal, state and local government web resources and services.